Time;durP1;ratioP1;P1;durP2;ratioP2;P2;SDS_P1;SDS_P2;PMS_P1;PMS_P2;Temp;Humidity;BMP_temperature;BMP_pressure;BME280_temperature;BME280_humidity;BME280_pressure;Samples;Min_cycle;Max_cycle;Signal;HPM_P1;HPM_P2
2021/01/15 00:01:01;;;;;;;;;;;-0.30;99.90;;;;;;5077544;28;19912;-85
2021/01/15 00:03:31;;;;;;;;;;;-0.30;99.90;;;;;;5060135;28;19908;-85
2021/01/15 00:06:06;;;;;;;;;;;-0.30;99.90;;;;;;5073963;28;19909;-85
2021/01/15 00:08:45;;;;;;;;;;;-0.20;99.90;;;;;;5073488;28;19915;-85
2021/01/15 00:11:17;;;;;;;;;;;-0.20;99.90;;;;;;5075647;28;20059;-89
2021/01/15 00:13:43;;;;;;;;;;;-0.10;99.90;;;;;;5072314;28;19944;-86
2021/01/15 00:16:18;;;;;;;;;;;-0.10;99.90;;;;;;5056075;28;19942;-85
2021/01/15 00:18:49;;;;;;;;;;;0.00;99.90;;;;;;5072020;28;20262;-86
2021/01/15 00:21:33;;;;;;;;;;;0.10;99.90;;;;;;5074897;27;19908;-85
2021/01/15 00:24:03;;;;;;;;;;;0.20;99.90;;;;;;5121122;27;19973;-86
2021/01/15 00:26:34;;;;;;;;;;;0.20;99.90;;;;;;5121708;27;19914;-86
2021/01/15 00:29:27;;;;;;;;;;;0.30;99.90;;;;;;5138011;27;20248;-86
2021/01/15 00:32:00;;;;;;;;;;;0.30;99.90;;;;;;5117448;27;20325;-86
2021/01/15 00:34:28;;;;;;;;;;;0.40;99.90;;;;;;5118406;27;19969;-85
2021/01/15 00:37:10;;;;;;;;;;;0.30;99.90;;;;;;5120121;27;20351;-86
2021/01/15 00:39:36;;;;;;;;;;;0.40;99.90;;;;;;5121303;27;19914;-86
2021/01/15 00:42:01;;;;;;;;;;;0.50;99.90;;;;;;5116248;27;20276;-86
2021/01/15 00:44:34;;;;;;;;;;;0.50;99.90;;;;;;5116288;27;20006;-85
2021/01/15 00:47:05;;;;;;;;;;;0.50;99.90;;;;;;5118004;27;19911;-86
2021/01/15 00:49:35;;;;;;;;;;;0.60;99.90;;;;;;5120753;27;19942;-86
2021/01/15 00:52:03;;;;;;;;;;;0.60;99.90;;;;;;5122545;27;20080;-86
2021/01/15 00:54:42;;;;;;;;;;;0.70;99.90;;;;;;5120540;27;19908;-85
2021/01/15 00:57:08;;;;;;;;;;;0.70;99.90;;;;;;5136746;27;19915;-86
2021/01/15 00:59:36;;;;;;;;;;;0.80;99.90;;;;;;5120706;27;19911;-86
2021/01/15 01:02:01;;;;;;;;;;;0.80;99.90;;;;;;5120069;27;19915;-86
2021/01/15 01:04:29;;;;;;;;;;;0.80;99.90;;;;;;5120419;27;19907;-86
2021/01/15 01:07:05;;;;;;;;;;;0.80;99.90;;;;;;5120432;27;19914;-86
2021/01/15 01:09:31;;;;;;;;;;;0.90;99.90;;;;;;5116884;27;19907;-85
2021/01/15 01:11:57;;;;;;;;;;;0.90;99.90;;;;;;5117242;27;20003;-85
2021/01/15 01:14:30;;;;;;;;;;;0.90;99.90;;;;;;5138087;27;19911;-86
2021/01/15 01:16:55;;;;;;;;;;;0.90;99.90;;;;;;5120334;27;19915;-86
2021/01/15 01:19:24;;;;;;;;;;;0.90;99.90;;;;;;5119862;27;19920;-85
2021/01/15 01:21:50;;;;;;;;;;;0.90;99.90;;;;;;5120536;27;19907;-86
2021/01/15 01:24:18;;;;;;;;;;;1.00;99.90;;;;;;5115271;27;20383;-86
2021/01/15 01:26:46;;;;;;;;;;;1.00;99.90;;;;;;5115788;27;19908;-86
2021/01/15 01:29:12;;;;;;;;;;;1.00;99.90;;;;;;5115521;27;20260;-86
2021/01/15 01:31:38;;;;;;;;;;;1.00;99.90;;;;;;5138018;27;19908;-85
2021/01/15 01:34:03;;;;;;;;;;;1.00;99.90;;;;;;5118267;27;19908;-86
2021/01/15 01:36:36;;;;;;;;;;;1.00;99.90;;;;;;5119825;27;20340;-86
2021/01/15 01:39:03;;;;;;;;;;;1.00;99.90;;;;;;5117636;27;19960;-85
2021/01/15 01:41:35;;;;;;;;;;;1.00;99.90;;;;;;5119459;27;19929;-86
2021/01/15 01:44:06;;;;;;;;;;;1.00;99.90;;;;;;5119435;27;19914;-85
2021/01/15 01:46:35;;;;;;;;;;;1.00;99.90;;;;;;5120116;27;19914;-86
2021/01/15 01:49:03;;;;;;;;;;;0.90;99.90;;;;;;5115728;27;19915;-86
2021/01/15 01:51:34;;;;;;;;;;;1.00;99.90;;;;;;5120051;27;20002;-86
2021/01/15 01:54:05;;;;;;;;;;;0.90;99.90;;;;;;5119441;27;19908;-86
2021/01/15 01:56:31;;;;;;;;;;;1.00;99.90;;;;;;5119704;27;19912;-86
2021/01/15 01:59:07;;;;;;;;;;;1.00;99.90;;;;;;5116433;27;19922;-86
2021/01/15 02:01:36;;;;;;;;;;;1.00;99.90;;;;;;5133025;27;19973;-86
2021/01/15 02:04:05;;;;;;;;;;;1.00;99.90;;;;;;5119662;27;19936;-86
2021/01/15 02:06:34;;;;;;;;;;;1.00;99.90;;;;;;5137713;27;20007;-86
2021/01/15 02:09:06;;;;;;;;;;;1.00;99.90;;;;;;5120161;27;19908;-86
2021/01/15 02:11:35;;;;;;;;;;;1.00;99.90;;;;;;5114325;27;19941;-86
2021/01/15 02:14:28;;;;;;;;;;;1.00;99.90;;;;;;5119960;27;19908;-86
2021/01/15 02:16:58;;;;;;;;;;;1.00;99.90;;;;;;5114532;27;19949;-87
2021/01/15 02:19:46;;;;;;;;;;;1.00;99.90;;;;;;5119622;27;20253;-85
2021/01/15 02:22:30;;;;;;;;;;;1.00;99.90;;;;;;5119910;27;19908;-85
2021/01/15 02:25:01;;;;;;;;;;;1.00;99.90;;;;;;5119502;27;19915;-86
2021/01/15 02:27:42;;;;;;;;;;;1.00;99.90;;;;;;5118845;27;20259;-86
2021/01/15 02:30:13;;;;;;;;;;;1.00;99.90;;;;;;5119299;27;20268;-85
2021/01/15 02:32:58;;;;;;;;;;;1.00;99.90;;;;;;5118542;27;19907;-86
2021/01/15 02:35:39;;;;;;;;;;;1.00;99.90;;;;;;5137208;27;19907;-85
2021/01/15 02:38:20;;;;;;;;;;;1.00;99.90;;;;;;5118716;27;19966;-85
2021/01/15 02:41:04;;;;;;;;;;;1.10;99.90;;;;;;5137471;27;19911;-85
2021/01/15 02:43:31;;;;;;;;;;;1.10;99.90;;;;;;5137040;27;19907;-85
2021/01/15 02:46:01;;;;;;;;;;;1.00;99.90;;;;;;5136671;27;19924;-85
2021/01/15 02:48:40;;;;;;;;;;;1.10;99.90;;;;;;5118793;27;19907;-85
2021/01/15 02:51:10;;;;;;;;;;;1.00;99.90;;;;;;5113839;27;19915;-85
2021/01/15 02:53:45;;;;;;;;;;;1.10;99.90;;;;;;5118775;27;19957;-85
2021/01/15 02:56:14;;;;;;;;;;;1.00;99.90;;;;;;5113983;27;20006;-85
2021/01/15 02:58:46;;;;;;;;;;;1.00;99.90;;;;;;5117750;27;19916;-85
2021/01/15 03:01:17;;;;;;;;;;;1.10;99.90;;;;;;5136679;27;19908;-85
2021/01/15 03:03:55;;;;;;;;;;;1.00;99.90;;;;;;5113189;27;19943;-85
2021/01/15 03:06:39;;;;;;;;;;;1.10;99.90;;;;;;5135144;27;19914;-85
2021/01/15 03:09:08;;;;;;;;;;;1.10;99.90;;;;;;5117886;27;19915;-85
2021/01/15 03:11:38;;;;;;;;;;;1.10;99.90;;;;;;5118081;27;19957;-85
2021/01/15 03:14:12;;;;;;;;;;;1.10;99.90;;;;;;5118004;27;19911;-84
2021/01/15 03:16:46;;;;;;;;;;;1.10;99.90;;;;;;5114307;27;19914;-86
2021/01/15 03:19:25;;;;;;;;;;;1.00;99.90;;;;;;5113899;27;20275;-84
2021/01/15 03:21:54;;;;;;;;;;;1.00;99.90;;;;;;5136802;27;19922;-85
2021/01/15 03:24:30;;;;;;;;;;;1.00;99.90;;;;;;5114088;27;19912;-85
2021/01/15 03:27:00;;;;;;;;;;;1.00;99.90;;;;;;5132872;27;19918;-86
2021/01/15 03:29:34;;;;;;;;;;;1.00;99.90;;;;;;5114154;27;19919;-86
2021/01/15 03:32:00;;;;;;;;;;;1.00;99.90;;;;;;5115943;27;19915;-85
2021/01/15 03:34:36;;;;;;;;;;;1.00;99.90;;;;;;5134427;27;19916;-86
2021/01/15 03:37:07;;;;;;;;;;;1.00;99.90;;;;;;5114075;27;19918;-86
2021/01/15 03:39:35;;;;;;;;;;;1.00;99.90;;;;;;5117154;27;20083;-86
2021/01/15 03:42:07;;;;;;;;;;;1.00;99.90;;;;;;5117554;27;19938;-85
2021/01/15 03:44:33;;;;;;;;;;;1.10;99.90;;;;;;5117137;27;20013;-86
2021/01/15 03:47:04;;;;;;;;;;;1.00;99.90;;;;;;5119334;27;19952;-85
2021/01/15 03:49:30;;;;;;;;;;;1.00;99.90;;;;;;5118341;27;19907;-84
2021/01/15 03:52:01;;;;;;;;;;;1.00;99.90;;;;;;5117479;27;19911;-86
2021/01/15 03:54:27;;;;;;;;;;;1.10;99.90;;;;;;5113804;27;19908;-86
2021/01/15 03:56:55;;;;;;;;;;;1.00;99.90;;;;;;5134645;27;19965;-87
2021/01/15 03:59:29;;;;;;;;;;;1.00;99.90;;;;;;5117719;27;19929;-85
2021/01/15 04:01:57;;;;;;;;;;;1.00;99.90;;;;;;5117067;28;19933;-85
2021/01/15 04:04:26;;;;;;;;;;;1.00;99.90;;;;;;5112535;28;20356;-85
2021/01/15 04:06:54;;;;;;;;;;;1.00;99.90;;;;;;5117438;28;19930;-85
2021/01/15 04:09:20;;;;;;;;;;;1.10;99.90;;;;;;5112847;28;19908;-85
2021/01/15 04:11:55;;;;;;;;;;;1.00;99.90;;;;;;5111855;28;19922;-86
2021/01/15 04:14:29;;;;;;;;;;;1.00;99.90;;;;;;5117405;28;19919;-85
2021/01/15 04:17:00;;;;;;;;;;;1.00;99.90;;;;;;5117032;28;19949;-86
2021/01/15 04:19:28;;;;;;;;;;;1.00;99.90;;;;;;5113302;28;19911;-86
2021/01/15 04:21:57;;;;;;;;;;;1.10;99.90;;;;;;5116845;28;20045;-85
2021/01/15 04:24:26;;;;;;;;;;;1.00;99.90;;;;;;5117308;28;19915;-85
2021/01/15 04:26:57;;;;;;;;;;;1.00;99.90;;;;;;5117067;28;19907;-85
2021/01/15 04:29:24;;;;;;;;;;;1.00;99.90;;;;;;5117345;28;19959;-86
2021/01/15 04:31:55;;;;;;;;;;;1.00;99.90;;;;;;5130526;28;19953;-85
2021/01/15 04:34:23;;;;;;;;;;;1.00;99.90;;;;;;5135566;27;20415;-85
2021/01/15 04:36:49;;;;;;;;;;;1.00;99.90;;;;;;5110066;27;19911;-85
2021/01/15 04:39:19;;;;;;;;;;;1.00;99.90;;;;;;5117011;28;19907;-86
2021/01/15 04:41:48;;;;;;;;;;;1.00;99.90;;;;;;5135745;27;19914;-85
2021/01/15 04:44:16;;;;;;;;;;;1.00;99.90;;;;;;5128692;27;19990;-86
2021/01/15 04:46:49;;;;;;;;;;;1.00;99.90;;;;;;5117606;28;19911;-85
2021/01/15 04:49:20;;;;;;;;;;;1.00;99.90;;;;;;5116769;28;19908;-86
2021/01/15 04:51:52;;;;;;;;;;;1.00;99.90;;;;;;5135650;28;20378;-86
2021/01/15 04:54:29;;;;;;;;;;;1.00;99.90;;;;;;5114321;28;19911;-85
2021/01/15 04:56:58;;;;;;;;;;;1.00;99.90;;;;;;5117138;28;19915;-85
2021/01/15 04:59:26;;;;;;;;;;;1.00;99.90;;;;;;5114259;28;20398;-85
2021/01/15 05:01:53;;;;;;;;;;;1.00;99.90;;;;;;5130309;28;20359;-85
2021/01/15 05:04:24;;;;;;;;;;;1.00;99.90;;;;;;5117220;28;19971;-86
2021/01/15 05:06:52;;;;;;;;;;;1.00;99.90;;;;;;5117503;27;19992;-85
2021/01/15 05:09:19;;;;;;;;;;;1.00;99.90;;;;;;5134044;27;19911;-86
2021/01/15 05:11:48;;;;;;;;;;;1.00;99.90;;;;;;5120974;27;19973;-85
2021/01/15 05:14:17;;;;;;;;;;;1.00;99.90;;;;;;5116502;27;19908;-86
2021/01/15 05:16:45;;;;;;;;;;;1.00;99.90;;;;;;5119923;27;19964;-85
2021/01/15 05:19:14;;;;;;;;;;;1.00;99.90;;;;;;5123029;27;21278;-85
2021/01/15 05:21:40;;;;;;;;;;;1.00;99.90;;;;;;5120066;27;19957;-85
2021/01/15 05:24:08;;;;;;;;;;;1.00;99.90;;;;;;5120076;27;19908;-86
2021/01/15 05:26:42;;;;;;;;;;;1.00;99.90;;;;;;5120372;27;19907;-87
2021/01/15 05:29:08;;;;;;;;;;;1.00;99.90;;;;;;5119531;27;20426;-86
2021/01/15 05:31:50;;;;;;;;;;;1.00;99.90;;;;;;5120240;27;19963;-86
2021/01/15 05:34:21;;;;;;;;;;;1.00;99.90;;;;;;5119546;27;19961;-86
2021/01/15 05:36:58;;;;;;;;;;;1.00;99.90;;;;;;5119592;27;20002;-85
2021/01/15 05:39:27;;;;;;;;;;;1.00;99.90;;;;;;5137731;27;20010;-85
2021/01/15 05:42:00;;;;;;;;;;;1.00;99.90;;;;;;5118821;27;19990;-85
2021/01/15 05:44:28;;;;;;;;;;;1.00;99.90;;;;;;5132614;27;20049;-86
2021/01/15 05:46:59;;;;;;;;;;;1.00;99.90;;;;;;5120188;27;19907;-85
2021/01/15 05:49:36;;;;;;;;;;;1.00;99.90;;;;;;5119469;27;19953;-85
2021/01/15 05:52:08;;;;;;;;;;;1.00;99.90;;;;;;5117612;27;20279;-84
2021/01/15 05:54:36;;;;;;;;;;;1.00;99.90;;;;;;5119520;27;19914;-86
2021/01/15 05:57:10;;;;;;;;;;;1.00;99.90;;;;;;5119169;27;19918;-86
2021/01/15 05:59:43;;;;;;;;;;;1.00;99.90;;;;;;5119446;27;19968;-86
2021/01/15 06:02:15;;;;;;;;;;;1.00;99.90;;;;;;5131775;27;20367;-86
2021/01/15 06:04:46;;;;;;;;;;;1.00;99.90;;;;;;5113772;27;19982;-85
2021/01/15 06:07:15;;;;;;;;;;;1.00;99.90;;;;;;5137699;27;19918;-86
2021/01/15 06:09:48;;;;;;;;;;;1.00;99.90;;;;;;5119649;27;19966;-86
2021/01/15 06:12:16;;;;;;;;;;;1.00;99.90;;;;;;5137630;27;19919;-86
2021/01/15 06:15:15;;;;;;;;;;;1.00;99.90;;;;;;5120231;27;19911;-86
2021/01/15 06:17:46;;;;;;;;;;;1.00;99.90;;;;;;5134259;27;19912;-86
2021/01/15 06:20:26;;;;;;;;;;;1.00;99.90;;;;;;5136787;27;20417;-86
2021/01/15 06:23:31;;;;;;;;;;;1.00;99.90;;;;;;5116109;27;19958;-86
2021/01/15 06:26:03;;;;;;;;;;;1.00;99.90;;;;;;5056917;28;19912;-86
2021/01/15 06:28:35;;;;;;;;;;;1.00;99.90;;;;;;5105934;27;20298;-86
2021/01/15 06:31:08;;;;;;;;;;;1.00;99.90;;;;;;5118896;27;19970;-85
2021/01/15 06:33:36;;;;;;;;;;;1.00;99.90;;;;;;5137605;27;19953;-86
2021/01/15 06:36:08;;;;;;;;;;;1.00;99.90;;;;;;5116473;27;20005;-85
2021/01/15 06:38:41;;;;;;;;;;;1.00;99.90;;;;;;5114209;27;19919;-85
2021/01/15 06:41:18;;;;;;;;;;;1.00;99.90;;;;;;5121888;27;19907;-85
2021/01/15 06:43:52;;;;;;;;;;;1.00;99.90;;;;;;5121344;27;19908;-86
2021/01/15 06:46:35;;;;;;;;;;;1.10;99.90;;;;;;5123169;27;20026;-85
2021/01/15 06:49:12;;;;;;;;;;;1.10;99.90;;;;;;5080194;28;19912;-85
2021/01/15 06:51:56;;;;;;;;;;;1.10;99.90;;;;;;5077763;28;20403;-86
2021/01/15 06:54:28;;;;;;;;;;;1.10;99.90;;;;;;5072731;28;20308;-85
2021/01/15 06:57:11;;;;;;;;;;;1.10;99.90;;;;;;5089458;28;19908;-86
2021/01/15 06:59:38;;;;;;;;;;;1.10;99.90;;;;;;5071010;28;20318;-85
2021/01/15 07:02:11;;;;;;;;;;;1.10;99.90;;;;;;5073576;28;19907;-86
2021/01/15 07:05:00;;;;;;;;;;;1.10;99.90;;;;;;5070401;28;20023;-85
2021/01/15 07:07:33;;;;;;;;;;;1.10;99.90;;;;;;5076842;28;19915;-86
2021/01/15 07:10:00;;;;;;;;;;;1.10;99.90;;;;;;5089816;28;19908;-85
2021/01/15 07:12:30;;;;;;;;;;;1.10;99.90;;;;;;5092598;27;20288;-85
2021/01/15 07:15:00;;;;;;;;;;;1.10;99.90;;;;;;5118641;27;19908;-85
2021/01/15 07:17:35;;;;;;;;;;;1.10;99.90;;;;;;5136915;27;19915;-85
2021/01/15 07:20:33;;;;;;;;;;;1.10;99.90;;;;;;5118300;27;19915;-85
2021/01/15 07:23:14;;;;;;;;;;;1.10;99.90;;;;;;5117767;27;19911;-85
2021/01/15 07:25:47;;;;;;;;;;;1.10;99.90;;;;;;5114353;27;20476;-86
2021/01/15 07:28:21;;;;;;;;;;;1.10;99.90;;;;;;5118068;27;19997;-85
2021/01/15 07:30:49;;;;;;;;;;;1.10;99.90;;;;;;5116518;28;19908;-85
2021/01/15 07:33:19;;;;;;;;;;;1.10;99.90;;;;;;5112344;27;19908;-85
2021/01/15 07:35:50;;;;;;;;;;;1.10;99.90;;;;;;5111339;27;20419;-86
2021/01/15 07:38:19;;;;;;;;;;;1.10;99.90;;;;;;5118234;27;19947;-85
2021/01/15 07:40:50;;;;;;;;;;;1.10;99.90;;;;;;5111653;27;19911;-86
2021/01/15 07:43:36;;;;;;;;;;;1.10;99.90;;;;;;5135959;27;19907;-85
2021/01/15 07:46:06;;;;;;;;;;;1.10;99.90;;;;;;5115881;28;20368;-86
2021/01/15 07:48:35;;;;;;;;;;;1.10;99.90;;;;;;5112579;27;19911;-85
2021/01/15 07:51:12;;;;;;;;;;;1.10;99.90;;;;;;5136058;27;19908;-86
2021/01/15 07:53:43;;;;;;;;;;;1.10;99.90;;;;;;5117760;27;19907;-86
2021/01/15 07:56:12;;;;;;;;;;;1.10;99.90;;;;;;5118462;27;20276;-86
2021/01/15 07:58:47;;;;;;;;;;;1.20;99.90;;;;;;5110931;27;19916;-85
2021/01/15 08:01:16;;;;;;;;;;;1.10;99.90;;;;;;5118283;27;19930;-86
2021/01/15 08:03:45;;;;;;;;;;;1.20;99.90;;;;;;5117814;27;20000;-85
2021/01/15 08:06:11;;;;;;;;;;;1.20;99.90;;;;;;5134917;27;19958;-86
2021/01/15 08:08:54;;;;;;;;;;;1.20;99.90;;;;;;5117499;28;20264;-86
2021/01/15 08:11:21;;;;;;;;;;;1.20;99.90;;;;;;5112720;28;19907;-86
2021/01/15 08:14:07;;;;;;;;;;;1.20;99.90;;;;;;5109762;28;19907;-86
2021/01/15 08:16:36;;;;;;;;;;;1.20;99.90;;;;;;5116640;28;20011;-86
2021/01/15 08:19:15;;;;;;;;;;;1.20;99.90;;;;;;5135814;28;19915;-86
2021/01/15 08:21:43;;;;;;;;;;;1.30;99.90;;;;;;5113276;28;19907;-86
2021/01/15 08:24:17;;;;;;;;;;;1.30;99.90;;;;;;5135008;28;19911;-86
2021/01/15 08:26:43;;;;;;;;;;;1.30;99.90;;;;;;5117702;28;20287;-86
2021/01/15 08:29:17;;;;;;;;;;;1.30;99.90;;;;;;5117906;28;19908;-86
2021/01/15 08:31:43;;;;;;;;;;;1.30;99.90;;;;;;5117742;28;20352;-86
2021/01/15 08:34:16;;;;;;;;;;;1.40;99.90;;;;;;5122556;28;19957;-87
2021/01/15 08:36:42;;;;;;;;;;;1.40;99.90;;;;;;5134951;28;20256;-86
2021/01/15 08:39:41;;;;;;;;;;;1.40;99.90;;;;;;5133554;28;19922;-86
2021/01/15 08:42:11;;;;;;;;;;;1.50;99.90;;;;;;5112516;27;19908;-86
2021/01/15 08:44:40;;;;;;;;;;;1.50;99.90;;;;;;5121065;27;19955;-85
2021/01/15 08:47:17;;;;;;;;;;;1.50;99.90;;;;;;5117492;27;20355;-85
2021/01/15 08:49:59;;;;;;;;;;;1.60;99.90;;;;;;5121867;27;19946;-85
2021/01/15 08:52:40;;;;;;;;;;;1.60;99.90;;;;;;5121466;27;19907;-86
2021/01/15 08:55:09;;;;;;;;;;;1.60;99.90;;;;;;5119314;27;19912;-87
2021/01/15 08:57:41;;;;;;;;;;;1.60;99.90;;;;;;5120650;27;19968;-86
2021/01/15 09:00:15;;;;;;;;;;;1.60;99.90;;;;;;5120846;27;19907;-86
2021/01/15 09:03:06;;;;;;;;;;;1.60;99.90;;;;;;5140482;27;19911;-86
2021/01/15 09:06:02;;;;;;;;;;;;;;;;;;;;;
2021/01/15 09:08:37;;;;;;;;;;;1.70;99.90;;;;;;5140373;27;19914;-86
2021/01/15 09:11:07;;;;;;;;;;;1.70;99.90;;;;;;5120664;27;19960;-86
2021/01/15 09:13:50;;;;;;;;;;;1.70;99.90;;;;;;5069899;27;19973;-85
2021/01/15 09:16:23;;;;;;;;;;;1.70;99.90;;;;;;5120429;27;20340;-85
2021/01/15 09:18:52;;;;;;;;;;;1.70;99.90;;;;;;5120693;27;20006;-86
2021/01/15 09:21:24;;;;;;;;;;;1.70;99.90;;;;;;5120285;27;20362;-86
2021/01/15 09:23:59;;;;;;;;;;;1.70;99.90;;;;;;5120228;27;20359;-85
2021/01/15 09:26:25;;;;;;;;;;;1.70;99.90;;;;;;5120307;27;20336;-85
2021/01/15 09:28:55;;;;;;;;;;;1.70;99.90;;;;;;5120418;27;20390;-86
2021/01/15 09:31:22;;;;;;;;;;;1.80;99.90;;;;;;5120728;27;19938;-85
2021/01/15 09:33:58;;;;;;;;;;;1.80;99.90;;;;;;5120345;27;19955;-86
2021/01/15 09:36:29;;;;;;;;;;;1.80;99.90;;;;;;5120687;27;20379;-86
2021/01/15 09:39:07;;;;;;;;;;;1.80;99.90;;;;;;5138863;27;20419;-87
2021/01/15 09:41:33;;;;;;;;;;;1.80;99.90;;;;;;5116159;27;19911;-87
2021/01/15 09:44:07;;;;;;;;;;;1.80;99.90;;;;;;5114109;27;20257;-86
2021/01/15 09:46:40;;;;;;;;;;;1.80;99.90;;;;;;5094490;28;20023;-86
2021/01/15 09:49:06;;;;;;;;;;;1.90;99.90;;;;;;5099805;28;19968;-86
2021/01/15 09:51:35;;;;;;;;;;;1.90;99.90;;;;;;5100415;28;19908;-86
2021/01/15 09:54:03;;;;;;;;;;;1.90;99.90;;;;;;5098669;28;19908;-85
2021/01/15 09:56:47;;;;;;;;;;;2.00;99.90;;;;;;5099959;28;19915;-85
2021/01/15 09:59:15;;;;;;;;;;;1.90;99.90;;;;;;5099535;28;19926;-86
2021/01/15 10:01:45;;;;;;;;;;;2.00;99.90;;;;;;5114358;28;19912;-86
2021/01/15 10:04:14;;;;;;;;;;;2.00;99.90;;;;;;5099413;28;19908;-85
2021/01/15 10:06:44;;;;;;;;;;;2.00;99.90;;;;;;5092316;28;19956;-85
2021/01/15 10:09:14;;;;;;;;;;;2.00;99.90;;;;;;5078446;28;20348;-86
2021/01/15 10:11:51;;;;;;;;;;;2.10;99.90;;;;;;5077599;28;19912;-86
2021/01/15 10:14:22;;;;;;;;;;;2.10;99.90;;;;;;5082745;28;19947;-86
2021/01/15 10:16:50;;;;;;;;;;;2.10;99.90;;;;;;5080529;28;19939;-86
2021/01/15 10:19:25;;;;;;;;;;;2.10;99.90;;;;;;5072086;28;19999;-86
2021/01/15 10:21:54;;;;;;;;;;;2.20;99.90;;;;;;5077786;28;20434;-85
2021/01/15 10:24:39;;;;;;;;;;;2.20;99.90;;;;;;5093345;28;19942;-86
2021/01/15 10:27:07;;;;;;;;;;;2.20;99.90;;;;;;5091675;28;20411;-86
2021/01/15 10:29:39;;;;;;;;;;;2.20;99.90;;;;;;5078512;28;20026;-86
2021/01/15 10:32:13;;;;;;;;;;;2.20;99.90;;;;;;5113732;28;19954;-86
2021/01/15 10:35:01;;;;;;;;;;;2.10;99.90;;;;;;5115806;28;19916;-87
2021/01/15 10:37:39;;;;;;;;;;;2.20;99.90;;;;;;5096736;28;20415;-87
2021/01/15 10:40:17;;;;;;;;;;;2.20;99.90;;;;;;5096487;28;19916;-87
2021/01/15 10:42:53;;;;;;;;;;;2.20;99.90;;;;;;5073289;28;19917;-86
2021/01/15 10:45:21;;;;;;;;;;;2.20;99.90;;;;;;5067299;28;20428;-84
2021/01/15 10:47:49;;;;;;;;;;;2.20;99.90;;;;;;5074270;28;19971;-86
2021/01/15 10:50:33;;;;;;;;;;;2.30;99.90;;;;;;5077272;28;19940;-87
2021/01/15 10:53:10;;;;;;;;;;;2.30;99.90;;;;;;5094014;28;19939;-86
2021/01/15 10:55:36;;;;;;;;;;;2.30;99.90;;;;;;5094172;28;19908;-84
2021/01/15 10:58:05;;;;;;;;;;;2.30;99.90;;;;;;5076988;28;19924;-86
2021/01/15 11:00:36;;;;;;;;;;;2.30;99.90;;;;;;5077041;28;20305;-86
2021/01/15 11:03:06;;;;;;;;;;;2.30;99.90;;;;;;5075502;28;19915;-86
2021/01/15 11:05:42;;;;;;;;;;;2.30;99.90;;;;;;5077088;28;20490;-86
2021/01/15 11:08:13;;;;;;;;;;;2.30;99.90;;;;;;5076505;28;19908;-87
2021/01/15 11:10:50;;;;;;;;;;;2.30;99.90;;;;;;5074392;28;19958;-86
2021/01/15 11:13:22;;;;;;;;;;;2.30;99.90;;;;;;5093861;28;19908;-86
2021/01/15 11:16:14;;;;;;;;;;;2.30;99.90;;;;;;5092156;28;19908;-86
2021/01/15 11:18:42;;;;;;;;;;;2.30;99.90;;;;;;5075889;28;20031;-86
2021/01/15 11:21:22;;;;;;;;;;;2.30;99.90;;;;;;5131441;27;20291;-86
2021/01/15 11:23:58;;;;;;;;;;;2.30;99.90;;;;;;5118667;27;19907;-86
2021/01/15 11:26:34;;;;;;;;;;;2.30;99.90;;;;;;5114297;27;19911;-86
2021/01/15 11:29:03;;;;;;;;;;;2.30;99.90;;;;;;5118161;27;19972;-86
2021/01/15 11:31:31;;;;;;;;;;;2.30;99.90;;;;;;5118279;27;19907;-86
2021/01/15 11:33:57;;;;;;;;;;;2.30;99.90;;;;;;5035766;28;19909;-86
2021/01/15 11:36:30;;;;;;;;;;;2.30;99.90;;;;;;5052208;28;20024;-86
2021/01/15 11:39:17;;;;;;;;;;;2.30;99.90;;;;;;5052796;28;19917;-86
2021/01/15 11:41:48;;;;;;;;;;;2.40;99.90;;;;;;5053255;28;19912;-86
2021/01/15 11:44:18;;;;;;;;;;;2.40;99.90;;;;;;5052041;28;20361;-86
2021/01/15 11:46:46;;;;;;;;;;;2.40;99.90;;;;;;5049751;28;19929;-86
2021/01/15 11:49:28;;;;;;;;;;;2.40;99.90;;;;;;5051947;28;19913;-86
2021/01/15 11:51:56;;;;;;;;;;;2.40;99.90;;;;;;5051318;28;19913;-85
2021/01/15 11:54:25;;;;;;;;;;;2.40;99.90;;;;;;5053984;28;20289;-85
2021/01/15 11:56:54;;;;;;;;;;;2.30;99.90;;;;;;5053825;28;19909;-86
2021/01/15 11:59:25;;;;;;;;;;;2.30;99.90;;;;;;5049903;28;19925;-86
2021/01/15 12:02:07;;;;;;;;;;;2.30;99.90;;;;;;5052622;28;19909;-86
2021/01/15 12:04:38;;;;;;;;;;;2.30;99.90;;;;;;5076618;28;19998;-86
2021/01/15 12:07:09;;;;;;;;;;;2.30;99.90;;;;;;5117306;28;19912;-86
2021/01/15 12:09:41;;;;;;;;;;;2.30;99.90;;;;;;5135458;27;19915;-86
2021/01/15 12:12:09;;;;;;;;;;;2.30;99.90;;;;;;5111585;28;19907;-86
2021/01/15 12:14:35;;;;;;;;;;;2.30;99.90;;;;;;5112012;28;19984;-87
2021/01/15 12:17:16;;;;;;;;;;;2.20;99.90;;;;;;5117845;27;19931;-86
2021/01/15 12:19:46;;;;;;;;;;;2.20;99.90;;;;;;5140293;27;20002;-86
2021/01/15 12:22:12;;;;;;;;;;;2.20;99.90;;;;;;5116843;27;19907;-85
2021/01/15 12:24:38;;;;;;;;;;;2.20;99.90;;;;;;5115228;27;20329;-86
2021/01/15 12:27:09;;;;;;;;;;;2.20;99.90;;;;;;5121452;27;20253;-85
2021/01/15 12:29:40;;;;;;;;;;;2.30;99.90;;;;;;5120990;27;20010;-85
2021/01/15 12:32:10;;;;;;;;;;;2.30;99.90;;;;;;5120405;27;19907;-85
2021/01/15 12:34:38;;;;;;;;;;;2.30;99.90;;;;;;5122104;27;19936;-86
2021/01/15 12:37:06;;;;;;;;;;;2.30;99.90;;;;;;5115529;27;19908;-85
2021/01/15 12:39:44;;;;;;;;;;;2.30;99.90;;;;;;5121282;27;19912;-86
2021/01/15 12:42:13;;;;;;;;;;;2.40;99.90;;;;;;5120608;27;19911;-85
2021/01/15 12:44:47;;;;;;;;;;;2.40;99.90;;;;;;5120683;27;19923;-86
2021/01/15 12:47:23;;;;;;;;;;;2.30;99.90;;;;;;5121336;27;20336;-85
2021/01/15 12:49:51;;;;;;;;;;;2.40;99.90;;;;;;5120915;27;19908;-85
2021/01/15 12:52:21;;;;;;;;;;;2.40;99.90;;;;;;5133907;27;19912;-86
2021/01/15 12:54:47;;;;;;;;;;;2.40;99.90;;;;;;5120676;27;19952;-86
2021/01/15 12:57:15;;;;;;;;;;;2.40;99.90;;;;;;5120186;27;21822;-86
2021/01/15 12:59:49;;;;;;;;;;;2.40;99.90;;;;;;5139194;27;19994;-85
2021/01/15 13:02:14;;;;;;;;;;;2.40;99.90;;;;;;5120773;27;19950;-86
2021/01/15 13:04:44;;;;;;;;;;;2.40;99.90;;;;;;5117702;27;19912;-86
2021/01/15 13:07:11;;;;;;;;;;;2.50;99.90;;;;;;5078248;28;19919;-85
2021/01/15 13:09:44;;;;;;;;;;;2.50;99.90;;;;;;5073691;28;19930;-88
2021/01/15 13:12:12;;;;;;;;;;;2.50;99.90;;;;;;5078247;28;20015;-86
2021/01/15 13:14:38;;;;;;;;;;;2.50;99.90;;;;;;5072758;28;19915;-86
2021/01/15 13:17:06;;;;;;;;;;;2.50;99.90;;;;;;5075678;28;19912;-87
2021/01/15 13:19:34;;;;;;;;;;;2.50;99.90;;;;;;5076135;28;19990;-86
2021/01/15 13:22:07;;;;;;;;;;;2.50;99.90;;;;;;5082899;28;19908;-85
2021/01/15 13:24:35;;;;;;;;;;;2.50;99.90;;;;;;5083394;28;19919;-86
2021/01/15 13:27:07;;;;;;;;;;;2.50;99.90;;;;;;5084703;28;19908;-86
2021/01/15 13:29:40;;;;;;;;;;;2.50;99.90;;;;;;5083491;28;19947;-86
2021/01/15 13:32:10;;;;;;;;;;;2.60;99.90;;;;;;5076268;28;20007;-85
2021/01/15 13:34:40;;;;;;;;;;;2.60;99.90;;;;;;5095292;28;19908;-86
2021/01/15 13:37:12;;;;;;;;;;;2.60;99.90;;;;;;5065016;28;19912;-86
2021/01/15 13:39:43;;;;;;;;;;;2.60;99.90;;;;;;5078867;28;20289;-86
2021/01/15 13:42:16;;;;;;;;;;;2.50;99.90;;;;;;5076985;28;19912;-86
2021/01/15 13:44:44;;;;;;;;;;;2.50;99.90;;;;;;5075184;28;19924;-86
2021/01/15 13:47:18;;;;;;;;;;;2.50;99.90;;;;;;5078509;28;20262;-85
2021/01/15 13:49:44;;;;;;;;;;;2.50;99.90;;;;;;5091029;28;20345;-87
2021/01/15 13:52:27;;;;;;;;;;;2.50;99.90;;;;;;5075286;28;20400;-86
2021/01/15 13:54:53;;;;;;;;;;;2.50;99.90;;;;;;5077077;28;19914;-87
2021/01/15 13:57:22;;;;;;;;;;;2.50;99.90;;;;;;5094871;28;20393;-85
2021/01/15 13:59:50;;;;;;;;;;;2.50;99.90;;;;;;5094893;28;19947;-86
2021/01/15 14:02:15;;;;;;;;;;;2.50;99.90;;;;;;5077995;28;19965;-86
2021/01/15 14:04:43;;;;;;;;;;;2.50;99.90;;;;;;5078266;28;19912;-85
2021/01/15 14:07:13;;;;;;;;;;;2.50;99.90;;;;;;5077530;28;19908;-86
2021/01/15 14:09:43;;;;;;;;;;;2.50;99.90;;;;;;5073493;28;19915;-87
2021/01/15 14:12:28;;;;;;;;;;;2.50;99.90;;;;;;5094214;28;19908;-91
2021/01/15 14:14:58;;;;;;;;;;;2.50;99.90;;;;;;5077790;28;19912;-86
2021/01/15 14:17:27;;;;;;;;;;;2.50;99.90;;;;;;5074749;28;19916;-86
2021/01/15 14:19:58;;;;;;;;;;;2.50;99.90;;;;;;5077367;28;20270;-85
2021/01/15 14:22:28;;;;;;;;;;;2.50;99.90;;;;;;5076839;28;19915;-86
2021/01/15 14:24:59;;;;;;;;;;;2.40;99.90;;;;;;5075886;28;19922;-86
2021/01/15 14:27:30;;;;;;;;;;;2.40;99.90;;;;;;5117918;27;19911;-87
2021/01/15 14:29:58;;;;;;;;;;;2.40;99.90;;;;;;5118781;27;19908;-86
2021/01/15 14:32:25;;;;;;;;;;;2.40;99.90;;;;;;5118474;27;19911;-86
2021/01/15 14:35:01;;;;;;;;;;;2.40;99.90;;;;;;5137242;27;19960;-86
2021/01/15 14:37:32;;;;;;;;;;;2.40;99.90;;;;;;5131044;27;19963;-86
2021/01/15 14:40:00;;;;;;;;;;;2.40;99.90;;;;;;5118434;27;19911;-87
2021/01/15 14:42:28;;;;;;;;;;;2.40;99.90;;;;;;5119562;27;20379;-86
2021/01/15 14:44:54;;;;;;;;;;;2.40;99.90;;;;;;5118611;27;19968;-87
2021/01/15 14:47:24;;;;;;;;;;;2.40;99.90;;;;;;5119126;27;19947;-86
2021/01/15 14:49:50;;;;;;;;;;;2.40;99.90;;;;;;5113797;27;19929;-86
2021/01/15 14:52:24;;;;;;;;;;;2.40;99.90;;;;;;5136919;27;19907;-86
2021/01/15 14:54:53;;;;;;;;;;;2.40;99.90;;;;;;5118566;27;19914;-85
2021/01/15 14:57:25;;;;;;;;;;;2.30;99.90;;;;;;5113583;27;19911;-87
2021/01/15 14:59:58;;;;;;;;;;;2.30;99.90;;;;;;5139210;27;19907;-86